createdAt,value
2022-09-14T00:02:18.465Z,24.27
2022-09-14T00:04:47.559Z,22.88
2022-09-14T00:07:19.133Z,22.77
2022-09-14T00:09:47.419Z,21.90
2022-09-14T00:12:17.131Z,19.67
2022-09-14T00:14:53.355Z,18.37
2022-09-14T00:17:23.606Z,21.02
2022-09-14T00:19:54.422Z,23.33
2022-09-14T00:22:24.723Z,20.80
2022-09-14T00:24:53.840Z,16.88
2022-09-14T00:27:21.532Z,17.90
2022-09-14T00:29:51.267Z,19.20
2022-09-14T00:32:19.128Z,16.00
2022-09-14T00:35:06.570Z,15.90
2022-09-14T00:37:40.420Z,15.85
2022-09-14T00:40:10.250Z,11.07
2022-09-14T00:42:40.946Z,13.02
2022-09-14T00:45:32.595Z,13.20
2022-09-14T00:48:00.440Z,14.98
2022-09-14T00:50:42.040Z,13.38
2022-09-14T00:53:14.699Z,11.30
2022-09-14T00:55:43.164Z,11.57
2022-09-14T00:58:22.327Z,16.40
2022-09-14T01:00:52.300Z,15.23
2022-09-14T01:03:25.162Z,15.10
2022-09-14T01:06:08.819Z,18.23
2022-09-14T01:09:30.853Z,16.85
2022-09-14T01:11:58.611Z,17.15
2022-09-14T01:14:44.007Z,19.63
2022-09-14T01:17:17.997Z,19.13
2022-09-14T01:19:51.381Z,17.92
2022-09-14T01:22:24.417Z,20.77
2022-09-14T01:25:16.805Z,19.83
2022-09-14T01:27:49.578Z,19.33
2022-09-14T01:30:24.478Z,18.10
2022-09-14T01:33:09.332Z,22.23
2022-09-14T01:36:09.283Z,21.77
2022-09-14T01:38:54.764Z,28.27
2022-09-14T01:41:30.348Z,26.88
2022-09-14T01:44:07.600Z,17.92
2022-09-14T01:46:47.990Z,20.50
2022-09-14T01:49:21.025Z,21.23
2022-09-14T01:51:54.067Z,18.85
2022-09-14T01:54:34.680Z,21.17
2022-09-14T01:59:42.758Z,19.42
2022-09-14T02:02:18.513Z,19.45
2022-09-14T02:05:04.397Z,20.40
2022-09-14T02:07:39.647Z,20.02
2022-09-14T02:10:11.812Z,24.60
2022-09-14T02:12:43.979Z,24.95
2022-09-14T02:15:13.774Z,21.77
2022-09-14T02:17:43.379Z,26.10
2022-09-14T02:20:20.667Z,26.45
2022-09-14T02:22:48.442Z,27.48
2022-09-14T02:25:16.245Z,22.75
2022-09-14T02:27:43.943Z,26.38
2022-09-14T02:30:14.064Z,24.87
2022-09-14T02:33:21.168Z,23.88
2022-09-14T02:35:55.303Z,22.63
2022-09-14T02:38:39.391Z,27.67
2022-09-14T02:41:39.793Z,24.90
2022-09-14T02:44:31.766Z,23.23
2022-09-14T02:47:17.356Z,26.95
2022-09-14T02:49:58.606Z,21.17
2022-09-14T02:52:37.964Z,19.55
2022-09-14T02:55:21.222Z,24.55
2022-09-14T02:58:07.789Z,22.55
2022-09-14T03:00:40.758Z,21.73
2022-09-14T03:03:10.174Z,19.75
2022-09-14T03:05:40.143Z,23.60
2022-09-14T03:08:10.884Z,21.60
2022-09-14T03:10:41.632Z,23.35
2022-09-14T03:15:37.550Z,20.67
2022-09-14T03:18:09.985Z,25.05
2022-09-14T03:20:43.695Z,21.58
2022-09-14T03:23:13.098Z,22.13
2022-09-14T03:25:43.811Z,25.65
2022-09-14T03:30:40.172Z,26.90
2022-09-14T03:33:08.981Z,22.23
2022-09-14T03:35:41.177Z,25.33
2022-09-14T03:38:08.789Z,28.45
2022-09-14T03:40:36.497Z,22.27
2022-09-14T03:43:04.578Z,24.05
2022-09-14T03:45:35.219Z,30.30
2022-09-14T03:48:05.501Z,27.58
2022-09-14T03:50:33.713Z,23.90
2022-09-14T03:53:02.503Z,29.33
2022-09-14T03:55:32.936Z,27.55
2022-09-14T03:58:00.592Z,32.88
2022-09-14T04:00:28.673Z,28.02
2022-09-14T04:02:56.681Z,30.05
2022-09-14T04:05:24.291Z,27.25
2022-09-14T04:07:51.918Z,29.13
2022-09-14T04:10:20.711Z,28.70
2022-09-14T04:12:51.325Z,25.15
2022-09-14T04:17:47.672Z,22.30
2022-09-14T04:20:15.466Z,24.27
2022-09-14T04:22:43.290Z,25.60
2022-09-14T04:25:12.825Z,24.48
2022-09-14T04:27:40.664Z,21.95
2022-09-14T04:30:12.740Z,25.75
2022-09-14T04:32:41.031Z,29.60
2022-09-14T04:35:13.788Z,24.10
2022-09-14T04:37:46.268Z,24.65
2022-09-14T04:40:15.186Z,27.33
2022-09-14T04:42:43.706Z,32.95
2022-09-14T04:45:11.833Z,29.15
2022-09-14T04:47:44.307Z,27.95
2022-09-14T04:50:15.887Z,29.30
2022-09-14T04:52:43.791Z,28.25
2022-09-14T04:55:11.693Z,32.17
2022-09-14T04:57:41.312Z,31.80
2022-09-14T05:00:18.338Z,30.38
2022-09-14T05:02:46.955Z,28.50
2022-09-14T05:05:18.896Z,30.10
2022-09-14T05:07:46.840Z,27.73
2022-09-14T05:10:14.683Z,26.60
2022-09-14T05:12:45.799Z,28.38
2022-09-14T05:15:16.562Z,29.58
2022-09-14T05:17:44.777Z,29.90
2022-09-14T05:20:22.337Z,28.77
2022-09-14T05:22:52.440Z,25.13
2022-09-14T05:25:22.537Z,29.65
2022-09-14T05:27:50.731Z,24.92
2022-09-14T05:30:18.689Z,22.35
2022-09-14T05:32:46.480Z,27.63
2022-09-14T05:35:18.208Z,27.88
2022-09-14T05:37:46.150Z,22.95
2022-09-14T05:40:16.828Z,28.52
2022-09-14T05:42:47.765Z,23.90
2022-09-14T05:45:15.814Z,26.13
2022-09-14T05:50:15.720Z,23.55
2022-09-14T05:52:46.509Z,18.23
2022-09-14T05:55:14.750Z,21.15
2022-09-14T05:57:46.951Z,20.35
2022-09-14T06:00:15.410Z,17.77
2022-09-14T06:02:50.531Z,17.55
2022-09-14T06:05:19.810Z,22.88
2022-09-14T06:07:54.873Z,21.95
2022-09-14T06:10:28.188Z,17.58
2022-09-14T06:12:56.167Z,20.20
2022-09-14T06:15:29.386Z,16.52
2022-09-14T06:17:57.707Z,18.80
2022-09-14T06:20:48.102Z,16.75
2022-09-14T06:23:13.875Z,17.08
2022-09-14T06:25:41.521Z,17.65
2022-09-14T06:28:09.185Z,17.77
2022-09-14T06:30:41.217Z,14.40
2022-09-14T06:33:11.631Z,15.70
2022-09-14T06:35:39.512Z,17.17
2022-09-14T06:38:07.322Z,14.52
2022-09-14T06:40:35.323Z,16.88
2022-09-14T06:43:04.385Z,15.73
2022-09-14T06:45:43.462Z,22.08
2022-09-14T06:50:42.406Z,14.82
2022-09-14T06:53:10.401Z,17.73
2022-09-14T06:55:38.256Z,14.73
2022-09-14T06:58:07.856Z,20.85
2022-09-14T07:00:38.498Z,14.90
2022-09-14T07:03:10.847Z,11.77
2022-09-14T07:05:41.498Z,15.77
2022-09-14T07:08:12.630Z,11.80
2022-09-14T07:10:47.926Z,12.63
2022-09-14T07:13:17.578Z,14.30
2022-09-14T07:15:50.587Z,16.58
2022-09-14T07:18:18.473Z,13.68
2022-09-14T07:20:46.621Z,12.48
2022-09-14T07:23:16.595Z,11.43
2022-09-14T07:25:44.417Z,12.98
2022-09-14T07:28:12.282Z,17.85
2022-09-14T07:30:41.301Z,10.35
2022-09-14T07:33:11.539Z,17.50
2022-09-14T07:35:46.827Z,12.27
2022-09-14T07:38:14.524Z,11.88
2022-09-14T07:40:42.291Z,13.65
2022-09-14T07:43:10.137Z,14.02
2022-09-14T07:45:38.888Z,15.48
2022-09-14T07:48:07.812Z,17.15
2022-09-14T07:50:35.886Z,11.75
2022-09-14T07:53:03.560Z,14.95
2022-09-14T07:55:31.303Z,18.50
2022-09-14T07:57:59.812Z,14.25
2022-09-14T08:00:28.564Z,20.05
2022-09-14T08:03:01.916Z,13.57
2022-09-14T08:05:32.431Z,12.75
2022-09-14T08:08:00.277Z,17.77
2022-09-14T08:10:30.907Z,14.45
2022-09-14T08:15:33.734Z,13.23
2022-09-14T08:18:01.281Z,16.30
2022-09-14T08:20:34.589Z,14.05
2022-09-14T08:23:05.105Z,16.15
2022-09-14T08:25:32.778Z,18.27
2022-09-14T08:28:01.599Z,13.95
2022-09-14T08:30:29.326Z,14.80
2022-09-14T08:33:01.244Z,14.38
2022-09-14T08:35:53.889Z,16.50
2022-09-14T08:38:22.236Z,11.57
2022-09-14T08:40:51.821Z,13.50
2022-09-14T08:43:23.368Z,17.97
2022-09-14T08:45:57.701Z,17.83
2022-09-14T08:48:48.495Z,15.02
2022-09-14T08:51:21.304Z,10.85
2022-09-14T08:53:52.402Z,12.98
2022-09-14T08:56:29.372Z,19.00
2022-09-14T08:59:31.390Z,16.83
2022-09-14T09:02:04.673Z,12.98
2022-09-14T09:04:38.699Z,14.77
2022-09-14T09:07:40.863Z,10.52
2022-09-14T09:10:15.586Z,11.60
2022-09-14T09:12:52.245Z,13.90
2022-09-14T09:15:50.855Z,10.45
2022-09-14T09:18:37.170Z,20.52
2022-09-14T09:21:45.346Z,11.50
2022-09-14T09:24:36.921Z,11.70
2022-09-14T09:27:12.880Z,10.63
2022-09-14T09:29:41.816Z,8.88
2022-09-14T09:32:24.144Z,16.02
2022-09-14T09:35:33.945Z,12.40
2022-09-14T09:38:41.298Z,12.57
2022-09-14T09:44:12.092Z,17.23
2022-09-14T09:46:50.957Z,11.50
2022-09-14T09:49:38.456Z,14.02
2022-09-14T09:52:10.666Z,10.57
2022-09-14T09:54:41.410Z,19.23
2022-09-14T09:57:29.280Z,11.85
2022-09-14T10:00:21.251Z,11.48
2022-09-14T10:02:49.497Z,13.23
2022-09-14T10:05:18.609Z,13.60
2022-09-14T10:07:53.401Z,12.40
2022-09-14T10:10:44.799Z,10.70
2022-09-14T10:13:28.645Z,10.07
2022-09-14T10:16:14.305Z,16.92
2022-09-14T10:18:49.236Z,9.57
2022-09-14T10:21:25.898Z,10.88
2022-09-14T10:24:23.187Z,9.65
2022-09-14T10:26:50.933Z,10.35
2022-09-14T10:29:35.509Z,13.90
2022-09-14T10:32:26.112Z,11.40
2022-09-14T10:34:55.519Z,8.38
2022-09-14T10:37:24.067Z,8.50
2022-09-14T10:40:02.257Z,13.83
2022-09-14T10:42:39.952Z,13.65
2022-09-14T10:45:22.794Z,10.32
2022-09-14T10:48:08.679Z,11.80
2022-09-14T10:51:09.158Z,8.00
2022-09-14T10:54:13.727Z,13.98
2022-09-14T10:57:18.987Z,10.00
2022-09-14T11:00:13.396Z,8.55
2022-09-14T11:02:59.814Z,7.85
2022-09-14T11:05:49.178Z,9.02
2022-09-14T11:08:24.801Z,15.50
2022-09-14T11:11:12.190Z,12.57
2022-09-14T11:14:04.278Z,9.07
2022-09-14T11:16:52.135Z,9.13
2022-09-14T11:19:20.084Z,9.50
2022-09-14T11:22:08.954Z,15.13
2022-09-14T11:24:56.555Z,10.00
2022-09-14T11:27:27.119Z,6.47
2022-09-14T11:30:04.713Z,9.43
2022-09-14T11:32:58.097Z,12.32
2022-09-14T11:35:33.225Z,12.68
2022-09-14T11:38:07.050Z,8.27
2022-09-14T11:40:58.042Z,9.68
2022-09-14T11:43:34.492Z,13.07
2022-09-14T11:46:15.993Z,9.65
2022-09-14T11:48:48.238Z,7.97
2022-09-14T11:51:32.448Z,12.43
2022-09-14T11:54:00.189Z,15.13
2022-09-14T11:56:40.662Z,11.27
2022-09-14T11:59:36.506Z,12.35
2022-09-14T12:02:22.885Z,9.05
2022-09-14T12:05:19.563Z,9.40
2022-09-14T12:07:47.173Z,15.05
2022-09-14T12:10:16.969Z,9.73
2022-09-14T12:13:04.089Z,7.95
2022-09-14T12:15:34.943Z,8.93
2022-09-14T12:18:05.920Z,13.38
2022-09-14T12:21:02.665Z,9.50
2022-09-14T12:23:39.364Z,11.27
2022-09-14T12:26:09.974Z,7.18
2022-09-14T12:28:58.811Z,9.40
2022-09-14T12:31:49.489Z,7.57
2022-09-14T12:34:28.040Z,9.23
2022-09-14T12:36:59.003Z,9.85
2022-09-14T12:39:35.572Z,5.95
2022-09-14T12:42:31.658Z,9.57
2022-09-14T12:45:37.724Z,8.52
2022-09-14T12:48:08.541Z,8.82
2022-09-14T12:50:39.577Z,4.88
2022-09-14T12:53:23.608Z,9.70
2022-09-14T12:56:01.703Z,7.45
2022-09-14T12:59:00.547Z,6.15
2022-09-14T13:02:00.683Z,6.75
2022-09-14T13:04:38.397Z,7.38
2022-09-14T13:07:14.224Z,6.15
2022-09-14T13:09:56.406Z,6.50
2022-09-14T13:12:45.622Z,8.05
2022-09-14T13:15:39.844Z,8.57
2022-09-14T13:18:36.909Z,5.38
2022-09-14T13:21:17.753Z,8.90
2022-09-14T13:23:45.713Z,7.35
2022-09-14T13:26:29.950Z,8.30
2022-09-14T13:29:00.394Z,9.82
2022-09-14T13:31:34.949Z,8.70
2022-09-14T13:34:05.321Z,5.85
2022-09-14T13:36:40.707Z,7.93
2022-09-14T13:39:22.666Z,6.10
2022-09-14T13:41:51.229Z,10.30
2022-09-14T13:44:45.462Z,6.45
2022-09-14T13:47:15.222Z,9.07
2022-09-14T13:49:45.170Z,10.10
2022-09-14T13:52:43.131Z,10.85
2022-09-14T13:55:27.409Z,6.32
2022-09-14T13:58:24.760Z,10.95
2022-09-14T14:00:54.896Z,8.85
2022-09-14T14:03:30.786Z,7.38
2022-09-14T14:05:59.741Z,5.80
2022-09-14T14:08:37.709Z,9.63
2022-09-14T14:11:07.681Z,8.23
2022-09-14T14:13:38.265Z,9.40
2022-09-14T14:16:24.975Z,7.65
2022-09-14T14:18:59.522Z,4.53
2022-09-14T14:21:31.344Z,7.35
2022-09-14T14:25:02.080Z,7.15
2022-09-14T14:27:38.988Z,12.13
2022-09-14T14:30:20.873Z,12.10
2022-09-14T14:33:00.878Z,5.22
2022-09-14T14:39:10.171Z,9.35
2022-09-14T14:41:54.809Z,7.95
2022-09-14T14:44:29.425Z,9.00
2022-09-14T14:49:32.239Z,8.60
2022-09-14T14:52:03.835Z,12.65
2022-09-14T14:54:36.158Z,7.97
2022-09-14T14:57:04.493Z,7.30
2022-09-14T14:59:42.098Z,6.22
2022-09-14T15:02:12.854Z,7.32
2022-09-14T15:04:41.658Z,5.70
2022-09-14T15:07:09.418Z,4.90
2022-09-14T15:09:37.056Z,5.47
2022-09-14T15:12:04.890Z,7.55
2022-09-14T15:14:35.450Z,7.18
2022-09-14T15:17:06.095Z,9.02
2022-09-14T15:19:33.803Z,4.78
2022-09-14T15:22:01.978Z,11.20
2022-09-14T15:24:30.746Z,10.38
2022-09-14T15:26:59.758Z,12.90
2022-09-14T15:29:30.327Z,4.53
2022-09-14T15:32:00.928Z,6.28
2022-09-14T15:34:35.057Z,4.55
2022-09-14T15:37:18.415Z,7.95
2022-09-14T15:39:54.889Z,5.45
2022-09-14T15:42:28.834Z,5.68
2022-09-14T15:44:57.248Z,4.45
2022-09-14T15:47:27.830Z,6.60
2022-09-14T15:49:56.549Z,9.82
2022-09-14T15:52:30.657Z,3.97
2022-09-14T15:54:58.618Z,3.28
2022-09-14T15:59:56.433Z,7.13
2022-09-14T16:02:24.796Z,8.50
2022-09-14T16:04:55.025Z,8.23
2022-09-14T16:07:23.942Z,11.07
2022-09-14T16:09:58.827Z,5.35
2022-09-14T16:12:34.041Z,7.20
2022-09-14T16:15:32.904Z,7.45
2022-09-14T16:18:06.627Z,6.45
2022-09-14T16:20:49.143Z,4.13
2022-09-14T16:23:41.624Z,6.50
2022-09-14T16:26:28.097Z,10.25
2022-09-14T16:28:59.968Z,6.43
2022-09-14T16:31:38.765Z,8.55
2022-09-14T16:34:39.381Z,5.32
2022-09-14T16:37:10.445Z,6.65
2022-09-14T16:39:43.507Z,3.20
2022-09-14T16:42:20.384Z,4.03
2022-09-14T16:44:48.697Z,10.23
2022-09-14T16:47:24.751Z,9.23
2022-09-14T16:49:55.389Z,7.50
2022-09-14T16:52:26.055Z,8.73
2022-09-14T16:55:01.109Z,8.13
2022-09-14T16:57:34.971Z,6.93
2022-09-14T17:00:12.141Z,11.00
2022-09-14T17:03:35.839Z,7.85
2022-09-14T17:06:41.986Z,4.45
2022-09-14T17:09:22.200Z,6.50
2022-09-14T17:12:07.670Z,6.18
2022-09-14T17:14:36.465Z,6.93
2022-09-14T17:17:08.394Z,6.18
2022-09-14T17:19:40.544Z,7.47
2022-09-14T17:22:14.454Z,7.72
2022-09-14T17:24:42.746Z,8.30
2022-09-14T17:27:12.917Z,6.38
2022-09-14T17:29:51.934Z,5.43
2022-09-14T17:32:21.333Z,6.53
2022-09-14T17:35:18.882Z,5.88
2022-09-14T17:38:15.832Z,8.35
2022-09-14T17:40:46.768Z,7.38
2022-09-14T17:43:16.801Z,9.52
2022-09-14T17:45:55.746Z,7.15
2022-09-14T17:48:31.849Z,6.00
2022-09-14T17:51:05.930Z,6.32
2022-09-14T17:53:45.219Z,6.88
2022-09-14T17:56:20.362Z,4.85
2022-09-14T17:58:50.326Z,10.55
2022-09-14T18:01:21.819Z,12.57
2022-09-14T18:03:52.129Z,10.93
2022-09-14T18:06:24.539Z,8.90
2022-09-14T18:08:59.801Z,7.88
2022-09-14T18:11:44.047Z,10.38
2022-09-14T18:14:19.771Z,8.27
2022-09-14T18:16:48.172Z,9.00
2022-09-14T18:19:19.499Z,8.38
2022-09-14T18:21:52.194Z,9.60
2022-09-14T18:24:24.187Z,8.88
2022-09-14T18:26:52.532Z,9.15
2022-09-14T18:29:23.245Z,10.07
2022-09-14T18:31:52.818Z,9.90
2022-09-14T18:34:22.037Z,12.10
2022-09-14T18:36:57.763Z,10.75
2022-09-14T18:39:25.799Z,10.32
2022-09-14T18:44:36.485Z,9.35
2022-09-14T18:47:18.175Z,15.02
2022-09-14T18:49:45.942Z,13.55
2022-09-14T18:52:21.564Z,11.07
2022-09-14T18:54:59.232Z,9.50
2022-09-14T18:57:29.563Z,13.77
2022-09-14T19:00:17.723Z,11.68
2022-09-14T19:02:56.709Z,10.77
2022-09-14T19:05:34.075Z,12.32
2022-09-14T19:08:02.385Z,9.40
2022-09-14T19:10:43.139Z,9.55
2022-09-14T19:14:34.652Z,10.73
2022-09-14T19:19:51.579Z,14.90
2022-09-14T19:27:07.462Z,10.77
2022-09-14T19:29:37.515Z,10.45
2022-09-14T19:32:09.887Z,9.38
2022-09-14T19:34:42.410Z,13.52
2022-09-14T19:37:23.249Z,9.05
2022-09-14T19:40:11.192Z,18.65
2022-09-14T19:42:39.612Z,11.68
2022-09-14T19:45:11.019Z,14.32
2022-09-14T19:47:39.387Z,8.38
2022-09-14T19:50:18.168Z,12.93
2022-09-14T19:52:46.076Z,20.05
2022-09-14T19:55:18.131Z,13.90
2022-09-14T19:58:07.728Z,17.67
2022-09-14T20:00:39.465Z,17.55
2022-09-14T20:06:06.925Z,13.52
2022-09-14T20:08:55.679Z,15.23
2022-09-14T20:11:29.614Z,16.08
2022-09-14T20:14:04.438Z,14.80
2022-09-14T20:16:40.001Z,13.15
2022-09-14T20:19:10.795Z,16.13
2022-09-14T20:21:39.406Z,15.82
2022-09-14T20:24:19.472Z,14.98
2022-09-14T20:29:45.082Z,18.33
2022-09-14T20:32:20.166Z,14.77
2022-09-14T20:34:51.462Z,13.25
2022-09-14T20:37:19.446Z,18.40
2022-09-14T20:39:48.957Z,15.13
2022-09-14T20:42:16.787Z,15.15
2022-09-14T20:44:55.584Z,14.07
2022-09-14T20:47:24.829Z,18.27
2022-09-14T20:49:52.556Z,14.18
2022-09-14T20:52:20.801Z,15.63
2022-09-14T20:54:51.742Z,17.45
2022-09-14T20:57:20.694Z,24.20
2022-09-14T20:59:49.494Z,17.15
2022-09-14T21:02:20.069Z,24.05
2022-09-14T21:04:49.592Z,20.70
2022-09-14T21:07:22.335Z,22.95
2022-09-14T21:09:59.819Z,20.00
2022-09-14T21:12:28.462Z,21.05
2022-09-14T21:14:59.597Z,21.98
2022-09-14T21:17:30.145Z,21.25
2022-09-14T21:20:01.698Z,17.10
2022-09-14T21:22:29.557Z,25.40
2022-09-14T21:24:57.589Z,22.33
2022-09-14T21:27:32.473Z,26.83
2022-09-14T21:30:00.776Z,21.30
2022-09-14T21:32:29.127Z,25.90
2022-09-14T21:35:01.164Z,26.17
2022-09-14T21:37:31.330Z,21.17
2022-09-14T21:39:59.316Z,25.20
2022-09-14T21:42:29.228Z,23.67
2022-09-14T21:44:59.339Z,24.20
2022-09-14T21:47:30.588Z,21.70
2022-09-14T21:52:31.297Z,24.73
2022-09-14T21:54:59.433Z,19.65
2022-09-14T21:57:29.884Z,22.17
2022-09-14T22:02:37.431Z,25.13
2022-09-14T22:05:07.044Z,23.55
2022-09-14T22:07:37.781Z,21.27
2022-09-14T22:10:14.254Z,22.90
2022-09-14T22:12:44.542Z,19.08
2022-09-14T22:15:16.033Z,26.15
2022-09-14T22:17:45.022Z,18.15
2022-09-14T22:20:14.526Z,24.95
2022-09-14T22:22:45.186Z,24.85
2022-09-14T22:25:16.559Z,22.83
2022-09-14T22:27:44.559Z,18.05
2022-09-14T22:30:15.695Z,18.38
2022-09-14T22:32:44.315Z,18.58
2022-09-14T22:35:36.655Z,20.90
2022-09-14T22:38:26.662Z,20.67
2022-09-14T22:41:11.858Z,31.05
2022-09-14T22:43:49.655Z,17.77
2022-09-14T22:46:49.319Z,19.75
2022-09-14T22:49:39.780Z,25.42
2022-09-14T22:52:08.784Z,18.77
2022-09-14T22:54:36.872Z,17.27
2022-09-14T22:57:04.720Z,15.48
2022-09-14T22:59:32.749Z,22.40
2022-09-14T23:02:03.074Z,19.50
2022-09-14T23:04:33.783Z,20.13
2022-09-14T23:07:03.651Z,19.90
2022-09-14T23:09:37.126Z,19.77
2022-09-14T23:14:36.243Z,17.27
2022-09-14T23:17:07.440Z,19.52
2022-09-14T23:19:36.393Z,21.58
2022-09-14T23:22:15.989Z,16.67
2022-09-14T23:24:52.329Z,17.30
2022-09-14T23:27:20.138Z,18.42
2022-09-14T23:32:34.057Z,17.55
2022-09-14T23:35:02.943Z,18.83
2022-09-14T23:37:33.241Z,15.63
2022-09-14T23:40:01.962Z,17.05
2022-09-14T23:42:29.809Z,17.45
2022-09-14T23:44:57.656Z,19.80
2022-09-14T23:47:28.999Z,21.15
2022-09-14T23:49:57.293Z,19.17
2022-09-14T23:52:25.705Z,20.15
2022-09-14T23:54:58.546Z,20.95
2022-09-14T23:57:26.371Z,19.17
2022-09-14T23:59:54.614Z,18.17
